sensor_id;sensor_type;location;lat;lon;timestamp;P1;durP1;ratioP1;P2;durP2;ratioP2
37873;SDS011;23709;48.078;11.684;2024-03-06T00:00:10;56.25;;;26.80;;
37873;SDS011;23709;48.078;11.684;2024-03-06T00:02:44;52.38;;;26.02;;
37873;SDS011;23709;48.078;11.684;2024-03-06T00:05:16;53.08;;;26.55;;
37873;SDS011;23709;48.078;11.684;2024-03-06T00:07:49;50.53;;;26.67;;
37873;SDS011;23709;48.078;11.684;2024-03-06T00:10:21;53.45;;;26.95;;
37873;SDS011;23709;48.078;11.684;2024-03-06T00:12:53;51.38;;;26.98;;
37873;SDS011;23709;48.078;11.684;2024-03-06T00:15:25;48.47;;;26.10;;
37873;SDS011;23709;48.078;11.684;2024-03-06T00:17:59;56.17;;;27.13;;
37873;SDS011;23709;48.078;11.684;2024-03-06T00:20:32;67.72;;;30.42;;
37873;SDS011;23709;48.078;11.684;2024-03-06T00:23:05;70.68;;;30.60;;
37873;SDS011;23709;48.078;11.684;2024-03-06T00:25:37;58.60;;;28.42;;
37873;SDS011;23709;48.078;11.684;2024-03-06T00:28:09;57.33;;;28.17;;
37873;SDS011;23709;48.078;11.684;2024-03-06T00:30:42;56.80;;;29.05;;
37873;SDS011;23709;48.078;11.684;2024-03-06T00:33:14;61.42;;;31.00;;
37873;SDS011;23709;48.078;11.684;2024-03-06T00:35:47;51.65;;;30.50;;
37873;SDS011;23709;48.078;11.684;2024-03-06T00:38:19;92.03;;;34.45;;
37873;SDS011;23709;48.078;11.684;2024-03-06T00:40:51;54.67;;;27.60;;
37873;SDS011;23709;48.078;11.684;2024-03-06T00:43:24;51.07;;;25.97;;
37873;SDS011;23709;48.078;11.684;2024-03-06T00:45:56;64.85;;;30.67;;
37873;SDS011;23709;48.078;11.684;2024-03-06T00:48:29;55.58;;;26.83;;
37873;SDS011;23709;48.078;11.684;2024-03-06T00:51:01;56.40;;;28.53;;
37873;SDS011;23709;48.078;11.684;2024-03-06T00:53:36;62.28;;;29.10;;
37873;SDS011;23709;48.078;11.684;2024-03-06T00:56:09;61.00;;;27.90;;
37873;SDS011;23709;48.078;11.684;2024-03-06T00:58:41;59.72;;;29.15;;
37873;SDS011;23709;48.078;11.684;2024-03-06T01:01:15;63.42;;;30.58;;
37873;SDS011;23709;48.078;11.684;2024-03-06T01:03:48;51.55;;;27.17;;
37873;SDS011;23709;48.078;11.684;2024-03-06T01:06:20;58.65;;;28.50;;
37873;SDS011;23709;48.078;11.684;2024-03-06T01:08:53;50.30;;;25.95;;
37873;SDS011;23709;48.078;11.684;2024-03-06T01:11:26;55.47;;;27.67;;
37873;SDS011;23709;48.078;11.684;2024-03-06T01:13:58;52.33;;;27.33;;
37873;SDS011;23709;48.078;11.684;2024-03-06T01:16:31;46.60;;;24.93;;
37873;SDS011;23709;48.078;11.684;2024-03-06T01:19:04;60.40;;;28.47;;
37873;SDS011;23709;48.078;11.684;2024-03-06T01:21:36;51.05;;;26.23;;
37873;SDS011;23709;48.078;11.684;2024-03-06T01:24:10;54.92;;;28.00;;
37873;SDS011;23709;48.078;11.684;2024-03-06T01:26:42;53.08;;;26.48;;
37873;SDS011;23709;48.078;11.684;2024-03-06T01:29:15;56.08;;;27.30;;
37873;SDS011;23709;48.078;11.684;2024-03-06T01:31:47;53.60;;;27.80;;
37873;SDS011;23709;48.078;11.684;2024-03-06T01:34:20;56.47;;;26.65;;
37873;SDS011;23709;48.078;11.684;2024-03-06T01:36:53;55.80;;;26.33;;
37873;SDS011;23709;48.078;11.684;2024-03-06T01:39:26;70.38;;;31.45;;
37873;SDS011;23709;48.078;11.684;2024-03-06T01:41:58;67.80;;;30.50;;
37873;SDS011;23709;48.078;11.684;2024-03-06T01:44:30;61.75;;;29.42;;
37873;SDS011;23709;48.078;11.684;2024-03-06T01:47:03;59.88;;;29.45;;
37873;SDS011;23709;48.078;11.684;2024-03-06T01:49:35;61.60;;;29.90;;
37873;SDS011;23709;48.078;11.684;2024-03-06T01:52:15;70.38;;;30.33;;
37873;SDS011;23709;48.078;11.684;2024-03-06T01:54:49;64.28;;;30.23;;
37873;SDS011;23709;48.078;11.684;2024-03-06T01:57:22;66.43;;;31.00;;
37873;SDS011;23709;48.078;11.684;2024-03-06T01:59:54;77.53;;;32.22;;
37873;SDS011;23709;48.078;11.684;2024-03-06T02:02:27;56.50;;;28.58;;
37873;SDS011;23709;48.078;11.684;2024-03-06T02:04:59;60.80;;;30.05;;
37873;SDS011;23709;48.078;11.684;2024-03-06T02:07:32;71.95;;;31.92;;
37873;SDS011;23709;48.078;11.684;2024-03-06T02:10:06;64.45;;;30.02;;
37873;SDS011;23709;48.078;11.684;2024-03-06T02:12:39;64.78;;;31.80;;
37873;SDS011;23709;48.078;11.684;2024-03-06T02:15:13;90.88;;;33.80;;
37873;SDS011;23709;48.078;11.684;2024-03-06T02:17:46;116.13;;;37.90;;
37873;SDS011;23709;48.078;11.684;2024-03-06T02:20:25;55.58;;;20.08;;
37873;SDS011;23709;48.078;11.684;2024-03-06T02:22:57;14.23;;;7.47;;
37873;SDS011;23709;48.078;11.684;2024-03-06T02:25:29;10.63;;;6.85;;
37873;SDS011;23709;48.078;11.684;2024-03-06T02:28:02;14.50;;;8.20;;
37873;SDS011;23709;48.078;11.684;2024-03-06T02:30:34;9.07;;;5.78;;
37873;SDS011;23709;48.078;11.684;2024-03-06T02:33:09;10.48;;;4.88;;
37873;SDS011;23709;48.078;11.684;2024-03-06T02:35:42;6.88;;;4.75;;
37873;SDS011;23709;48.078;11.684;2024-03-06T02:38:16;8.05;;;4.38;;
37873;SDS011;23709;48.078;11.684;2024-03-06T02:40:48;5.90;;;3.78;;
37873;SDS011;23709;48.078;11.684;2024-03-06T02:43:21;4.75;;;2.97;;
37873;SDS011;23709;48.078;11.684;2024-03-06T02:45:53;4.35;;;3.22;;
37873;SDS011;23709;48.078;11.684;2024-03-06T02:48:25;3.95;;;2.65;;
37873;SDS011;23709;48.078;11.684;2024-03-06T02:50:57;4.38;;;2.45;;
37873;SDS011;23709;48.078;11.684;2024-03-06T02:53:30;3.55;;;2.53;;
37873;SDS011;23709;48.078;11.684;2024-03-06T02:56:03;4.55;;;2.70;;
37873;SDS011;23709;48.078;11.684;2024-03-06T03:01:09;4.95;;;2.83;;
37873;SDS011;23709;48.078;11.684;2024-03-06T03:03:42;4.30;;;2.30;;
37873;SDS011;23709;48.078;11.684;2024-03-06T03:06:15;3.75;;;2.33;;
37873;SDS011;23709;48.078;11.684;2024-03-06T03:08:48;3.70;;;2.53;;
37873;SDS011;23709;48.078;11.684;2024-03-06T03:11:20;3.65;;;2.60;;
37873;SDS011;23709;48.078;11.684;2024-03-06T03:13:52;7.60;;;4.07;;
37873;SDS011;23709;48.078;11.684;2024-03-06T03:16:25;6.70;;;4.13;;
37873;SDS011;23709;48.078;11.684;2024-03-06T03:18:57;11.75;;;6.72;;
37873;SDS011;23709;48.078;11.684;2024-03-06T03:21:29;11.73;;;7.18;;
37873;SDS011;23709;48.078;11.684;2024-03-06T03:24:01;11.20;;;6.60;;
37873;SDS011;23709;48.078;11.684;2024-03-06T03:26:35;8.98;;;5.85;;
37873;SDS011;23709;48.078;11.684;2024-03-06T03:29:08;5.72;;;3.85;;
37873;SDS011;23709;48.078;11.684;2024-03-06T03:31:41;6.72;;;4.38;;
37873;SDS011;23709;48.078;11.684;2024-03-06T03:34:14;5.43;;;3.57;;
37873;SDS011;23709;48.078;11.684;2024-03-06T03:36:46;4.32;;;2.78;;
37873;SDS011;23709;48.078;11.684;2024-03-06T03:39:19;4.43;;;2.70;;
37873;SDS011;23709;48.078;11.684;2024-03-06T03:41:53;5.82;;;2.72;;
37873;SDS011;23709;48.078;11.684;2024-03-06T03:44:25;3.15;;;2.33;;
37873;SDS011;23709;48.078;11.684;2024-03-06T03:46:58;4.40;;;2.78;;
37873;SDS011;23709;48.078;11.684;2024-03-06T03:49:31;3.77;;;2.87;;
37873;SDS011;23709;48.078;11.684;2024-03-06T03:52:03;3.67;;;2.50;;
37873;SDS011;23709;48.078;11.684;2024-03-06T03:54:36;4.78;;;3.05;;
37873;SDS011;23709;48.078;11.684;2024-03-06T03:57:08;2.95;;;2.05;;
37873;SDS011;23709;48.078;11.684;2024-03-06T03:59:41;3.40;;;2.25;;
37873;SDS011;23709;48.078;11.684;2024-03-06T04:02:13;4.45;;;3.13;;
37873;SDS011;23709;48.078;11.684;2024-03-06T04:04:46;2.57;;;2.10;;
37873;SDS011;23709;48.078;11.684;2024-03-06T04:07:18;4.43;;;3.00;;
37873;SDS011;23709;48.078;11.684;2024-03-06T04:09:51;5.93;;;3.20;;
37873;SDS011;23709;48.078;11.684;2024-03-06T04:12:23;4.25;;;3.05;;
37873;SDS011;23709;48.078;11.684;2024-03-06T04:14:56;5.05;;;3.22;;
37873;SDS011;23709;48.078;11.684;2024-03-06T04:17:28;4.93;;;3.20;;
37873;SDS011;23709;48.078;11.684;2024-03-06T04:20:01;4.18;;;2.97;;
37873;SDS011;23709;48.078;11.684;2024-03-06T04:22:33;4.07;;;2.95;;
37873;SDS011;23709;48.078;11.684;2024-03-06T04:25:06;4.45;;;2.90;;
37873;SDS011;23709;48.078;11.684;2024-03-06T04:27:38;4.20;;;2.80;;
37873;SDS011;23709;48.078;11.684;2024-03-06T04:30:11;4.35;;;3.00;;
37873;SDS011;23709;48.078;11.684;2024-03-06T04:32:43;5.63;;;3.40;;
37873;SDS011;23709;48.078;11.684;2024-03-06T04:35:16;4.88;;;3.63;;
37873;SDS011;23709;48.078;11.684;2024-03-06T04:37:48;5.38;;;3.80;;
37873;SDS011;23709;48.078;11.684;2024-03-06T04:40:21;6.15;;;3.65;;
37873;SDS011;23709;48.078;11.684;2024-03-06T04:42:54;6.38;;;3.33;;
37873;SDS011;23709;48.078;11.684;2024-03-06T04:45:26;5.63;;;4.00;;
37873;SDS011;23709;48.078;11.684;2024-03-06T04:50:32;8.18;;;5.50;;
37873;SDS011;23709;48.078;11.684;2024-03-06T04:53:05;5.57;;;3.35;;
37873;SDS011;23709;48.078;11.684;2024-03-06T04:55:37;8.27;;;4.68;;
37873;SDS011;23709;48.078;11.684;2024-03-06T04:58:10;9.63;;;6.50;;
37873;SDS011;23709;48.078;11.684;2024-03-06T05:00:42;10.02;;;6.10;;
37873;SDS011;23709;48.078;11.684;2024-03-06T05:03:14;11.35;;;6.13;;
37873;SDS011;23709;48.078;11.684;2024-03-06T05:06:00;7.03;;;4.68;;
37873;SDS011;23709;48.078;11.684;2024-03-06T05:08:47;9.80;;;6.20;;
37873;SDS011;23709;48.078;11.684;2024-03-06T05:11:33;7.13;;;5.43;;
37873;SDS011;23709;48.078;11.684;2024-03-06T05:14:19;6.85;;;4.50;;
37873;SDS011;23709;48.078;11.684;2024-03-06T05:17:05;5.63;;;3.30;;
37873;SDS011;23709;48.078;11.684;2024-03-06T05:19:52;3.22;;;2.40;;
37873;SDS011;23709;48.078;11.684;2024-03-06T05:22:40;7.10;;;3.58;;
37873;SDS011;23709;48.078;11.684;2024-03-06T05:25:26;4.95;;;3.60;;
37873;SDS011;23709;48.078;11.684;2024-03-06T05:28:12;5.82;;;4.20;;
37873;SDS011;23709;48.078;11.684;2024-03-06T05:30:59;5.03;;;3.30;;
37873;SDS011;23709;48.078;11.684;2024-03-06T05:33:49;3.95;;;2.38;;
37873;SDS011;23709;48.078;11.684;2024-03-06T05:36:35;3.38;;;2.33;;
37873;SDS011;23709;48.078;11.684;2024-03-06T05:39:21;4.28;;;3.00;;
37873;SDS011;23709;48.078;11.684;2024-03-06T05:42:07;5.25;;;3.17;;
37873;SDS011;23709;48.078;11.684;2024-03-06T05:44:54;7.15;;;3.80;;
37873;SDS011;23709;48.078;11.684;2024-03-06T05:47:41;11.35;;;6.28;;
37873;SDS011;23709;48.078;11.684;2024-03-06T05:50:27;4.80;;;2.50;;
37873;SDS011;23709;48.078;11.684;2024-03-06T05:53:14;4.30;;;2.70;;
37873;SDS011;23709;48.078;11.684;2024-03-06T05:56:00;3.63;;;2.47;;
37873;SDS011;23709;48.078;11.684;2024-03-06T05:58:47;3.90;;;2.83;;
37873;SDS011;23709;48.078;11.684;2024-03-06T06:01:21;4.30;;;2.60;;
37873;SDS011;23709;48.078;11.684;2024-03-06T06:03:55;4.15;;;2.50;;
37873;SDS011;23709;48.078;11.684;2024-03-06T06:06:28;3.10;;;2.40;;
37873;SDS011;23709;48.078;11.684;2024-03-06T06:09:01;4.10;;;2.53;;
37873;SDS011;23709;48.078;11.684;2024-03-06T06:11:37;5.05;;;3.20;;
37873;SDS011;23709;48.078;11.684;2024-03-06T06:14:10;4.38;;;3.30;;
37873;SDS011;23709;48.078;11.684;2024-03-06T06:16:43;4.20;;;2.97;;
37873;SDS011;23709;48.078;11.684;2024-03-06T06:19:16;4.93;;;3.30;;
37873;SDS011;23709;48.078;11.684;2024-03-06T06:21:48;6.10;;;3.70;;
37873;SDS011;23709;48.078;11.684;2024-03-06T06:24:20;7.60;;;3.80;;
37873;SDS011;23709;48.078;11.684;2024-03-06T06:26:53;5.57;;;4.25;;
37873;SDS011;23709;48.078;11.684;2024-03-06T06:29:29;6.07;;;3.70;;
37873;SDS011;23709;48.078;11.684;2024-03-06T06:32:02;5.53;;;3.63;;
37873;SDS011;23709;48.078;11.684;2024-03-06T06:34:34;4.60;;;3.08;;
37873;SDS011;23709;48.078;11.684;2024-03-06T06:37:07;6.80;;;3.90;;
37873;SDS011;23709;48.078;11.684;2024-03-06T06:39:40;5.32;;;3.40;;
37873;SDS011;23709;48.078;11.684;2024-03-06T06:42:13;5.72;;;3.90;;
37873;SDS011;23709;48.078;11.684;2024-03-06T06:44:45;4.28;;;3.08;;
37873;SDS011;23709;48.078;11.684;2024-03-06T06:47:17;5.60;;;3.55;;
37873;SDS011;23709;48.078;11.684;2024-03-06T06:49:50;8.83;;;4.00;;
37873;SDS011;23709;48.078;11.684;2024-03-06T06:52:22;6.80;;;4.20;;
37873;SDS011;23709;48.078;11.684;2024-03-06T06:54:56;8.00;;;4.55;;
37873;SDS011;23709;48.078;11.684;2024-03-06T06:57:28;13.80;;;6.53;;
37873;SDS011;23709;48.078;11.684;2024-03-06T07:00:01;15.75;;;8.45;;
37873;SDS011;23709;48.078;11.684;2024-03-06T07:02:42;10.63;;;5.45;;
37873;SDS011;23709;48.078;11.684;2024-03-06T07:05:14;4.47;;;2.80;;
37873;SDS011;23709;48.078;11.684;2024-03-06T07:07:47;7.30;;;4.80;;
37873;SDS011;23709;48.078;11.684;2024-03-06T07:10:23;6.68;;;4.03;;
37873;SDS011;23709;48.078;11.684;2024-03-06T07:12:56;6.10;;;3.47;;
37873;SDS011;23709;48.078;11.684;2024-03-06T07:15:28;10.35;;;4.88;;
37873;SDS011;23709;48.078;11.684;2024-03-06T07:18:01;27.95;;;14.20;;
37873;SDS011;23709;48.078;11.684;2024-03-06T07:20:34;6.65;;;4.15;;
37873;SDS011;23709;48.078;11.684;2024-03-06T07:23:07;7.40;;;4.60;;
37873;SDS011;23709;48.078;11.684;2024-03-06T07:25:39;11.03;;;5.77;;
37873;SDS011;23709;48.078;11.684;2024-03-06T07:28:11;9.05;;;5.60;;
37873;SDS011;23709;48.078;11.684;2024-03-06T07:30:44;12.73;;;6.60;;
37873;SDS011;23709;48.078;11.684;2024-03-06T07:33:17;9.63;;;6.28;;
37873;SDS011;23709;48.078;11.684;2024-03-06T07:35:49;8.80;;;5.65;;
37873;SDS011;23709;48.078;11.684;2024-03-06T07:38:22;8.32;;;5.25;;
37873;SDS011;23709;48.078;11.684;2024-03-06T07:40:55;9.27;;;5.68;;
37873;SDS011;23709;48.078;11.684;2024-03-06T07:43:27;7.47;;;4.32;;
37873;SDS011;23709;48.078;11.684;2024-03-06T07:45:59;13.87;;;7.20;;
37873;SDS011;23709;48.078;11.684;2024-03-06T07:48:32;10.38;;;6.43;;
37873;SDS011;23709;48.078;11.684;2024-03-06T07:51:04;14.60;;;6.63;;
37873;SDS011;23709;48.078;11.684;2024-03-06T07:53:37;12.63;;;6.10;;
37873;SDS011;23709;48.078;11.684;2024-03-06T07:56:10;7.88;;;4.88;;
37873;SDS011;23709;48.078;11.684;2024-03-06T07:58:45;11.18;;;6.43;;
37873;SDS011;23709;48.078;11.684;2024-03-06T08:01:18;14.32;;;6.60;;
37873;SDS011;23709;48.078;11.684;2024-03-06T08:03:51;11.80;;;7.37;;
37873;SDS011;23709;48.078;11.684;2024-03-06T08:06:23;10.52;;;6.80;;
37873;SDS011;23709;48.078;11.684;2024-03-06T08:08:58;9.25;;;5.45;;
37873;SDS011;23709;48.078;11.684;2024-03-06T08:11:33;7.90;;;5.43;;
37873;SDS011;23709;48.078;11.684;2024-03-06T08:14:06;6.13;;;4.50;;
37873;SDS011;23709;48.078;11.684;2024-03-06T08:16:38;10.00;;;5.80;;
37873;SDS011;23709;48.078;11.684;2024-03-06T08:19:11;8.15;;;4.70;;
37873;SDS011;23709;48.078;11.684;2024-03-06T08:21:43;9.85;;;5.30;;
37873;SDS011;23709;48.078;11.684;2024-03-06T08:24:16;6.07;;;4.20;;
37873;SDS011;23709;48.078;11.684;2024-03-06T08:26:49;6.28;;;3.47;;
37873;SDS011;23709;48.078;11.684;2024-03-06T08:29:22;10.77;;;5.55;;
37873;SDS011;23709;48.078;11.684;2024-03-06T08:31:54;10.00;;;5.10;;
37873;SDS011;23709;48.078;11.684;2024-03-06T08:34:30;11.05;;;6.07;;
37873;SDS011;23709;48.078;11.684;2024-03-06T08:37:03;10.63;;;5.97;;
37873;SDS011;23709;48.078;11.684;2024-03-06T08:39:36;8.07;;;5.03;;
37873;SDS011;23709;48.078;11.684;2024-03-06T08:42:09;8.40;;;5.13;;
37873;SDS011;23709;48.078;11.684;2024-03-06T08:44:44;10.70;;;5.95;;
37873;SDS011;23709;48.078;11.684;2024-03-06T08:47:17;8.48;;;6.20;;
37873;SDS011;23709;48.078;11.684;2024-03-06T08:49:50;8.80;;;6.03;;
37873;SDS011;23709;48.078;11.684;2024-03-06T08:52:22;8.82;;;5.25;;
37873;SDS011;23709;48.078;11.684;2024-03-06T08:54:55;9.60;;;4.97;;
37873;SDS011;23709;48.078;11.684;2024-03-06T08:57:27;7.82;;;5.43;;
37873;SDS011;23709;48.078;11.684;2024-03-06T09:00:01;10.02;;;6.22;;
37873;SDS011;23709;48.078;11.684;2024-03-06T09:02:42;10.48;;;6.05;;
37873;SDS011;23709;48.078;11.684;2024-03-06T09:05:15;7.93;;;5.37;;
37873;SDS011;23709;48.078;11.684;2024-03-06T09:07:47;7.10;;;4.85;;
37873;SDS011;23709;48.078;11.684;2024-03-06T09:10:20;10.77;;;5.93;;
37873;SDS011;23709;48.078;11.684;2024-03-06T09:12:52;9.38;;;6.22;;
37873;SDS011;23709;48.078;11.684;2024-03-06T09:15:24;10.57;;;6.78;;
37873;SDS011;23709;48.078;11.684;2024-03-06T09:17:57;6.97;;;4.90;;
37873;SDS011;23709;48.078;11.684;2024-03-06T09:20:30;9.30;;;6.47;;
37873;SDS011;23709;48.078;11.684;2024-03-06T09:23:03;11.27;;;6.38;;
37873;SDS011;23709;48.078;11.684;2024-03-06T09:25:36;8.95;;;5.60;;
37873;SDS011;23709;48.078;11.684;2024-03-06T09:28:08;7.67;;;5.53;;
37873;SDS011;23709;48.078;11.684;2024-03-06T09:30:40;6.28;;;4.15;;
37873;SDS011;23709;48.078;11.684;2024-03-06T09:33:13;6.13;;;4.33;;
37873;SDS011;23709;48.078;11.684;2024-03-06T09:35:46;8.82;;;4.15;;
37873;SDS011;23709;48.078;11.684;2024-03-06T09:38:19;7.43;;;5.65;;
37873;SDS011;23709;48.078;11.684;2024-03-06T09:40:51;10.05;;;5.70;;
37873;SDS011;23709;48.078;11.684;2024-03-06T09:43:27;7.13;;;5.40;;
37873;SDS011;23709;48.078;11.684;2024-03-06T09:46:02;8.38;;;5.25;;
37873;SDS011;23709;48.078;11.684;2024-03-06T09:48:35;9.20;;;6.13;;
37873;SDS011;23709;48.078;11.684;2024-03-06T09:51:13;8.60;;;6.40;;
37873;SDS011;23709;48.078;11.684;2024-03-06T09:53:45;7.13;;;4.90;;
37873;SDS011;23709;48.078;11.684;2024-03-06T09:56:20;7.90;;;4.97;;
37873;SDS011;23709;48.078;11.684;2024-03-06T09:58:53;7.57;;;4.83;;
37873;SDS011;23709;48.078;11.684;2024-03-06T10:01:25;7.25;;;4.97;;
37873;SDS011;23709;48.078;11.684;2024-03-06T10:03:59;11.10;;;5.55;;
37873;SDS011;23709;48.078;11.684;2024-03-06T10:06:49;8.95;;;5.40;;
37873;SDS011;23709;48.078;11.684;2024-03-06T10:09:21;10.75;;;6.45;;
37873;SDS011;23709;48.078;11.684;2024-03-06T10:11:55;7.60;;;5.10;;
37873;SDS011;23709;48.078;11.684;2024-03-06T10:14:31;11.68;;;7.20;;
37873;SDS011;23709;48.078;11.684;2024-03-06T10:19:36;7.10;;;4.03;;
37873;SDS011;23709;48.078;11.684;2024-03-06T10:24:42;15.15;;;7.93;;
37873;SDS011;23709;48.078;11.684;2024-03-06T10:27:15;9.23;;;5.38;;
37873;SDS011;23709;48.078;11.684;2024-03-06T10:30:04;11.30;;;6.28;;
37873;SDS011;23709;48.078;11.684;2024-03-06T10:32:38;11.70;;;7.50;;
37873;SDS011;23709;48.078;11.684;2024-03-06T10:35:17;15.43;;;9.10;;
37873;SDS011;23709;48.078;11.684;2024-03-06T10:37:52;15.35;;;8.43;;
37873;SDS011;23709;48.078;11.684;2024-03-06T10:40:26;13.80;;;9.10;;
37873;SDS011;23709;48.078;11.684;2024-03-06T10:43:01;17.02;;;9.75;;
37873;SDS011;23709;48.078;11.684;2024-03-06T10:48:42;11.50;;;7.57;;
37873;SDS011;23709;48.078;11.684;2024-03-06T10:51:16;16.20;;;9.00;;
37873;SDS011;23709;48.078;11.684;2024-03-06T10:53:50;12.60;;;8.60;;
37873;SDS011;23709;48.078;11.684;2024-03-06T10:56:23;14.40;;;9.02;;
37873;SDS011;23709;48.078;11.684;2024-03-06T10:58:56;13.00;;;8.57;;
37873;SDS011;23709;48.078;11.684;2024-03-06T11:01:30;16.73;;;9.38;;
37873;SDS011;23709;48.078;11.684;2024-03-06T11:04:05;15.65;;;8.57;;
37873;SDS011;23709;48.078;11.684;2024-03-06T11:06:38;12.25;;;7.65;;
37873;SDS011;23709;48.078;11.684;2024-03-06T11:09:11;9.73;;;6.07;;
37873;SDS011;23709;48.078;11.684;2024-03-06T11:11:50;10.90;;;6.90;;
37873;SDS011;23709;48.078;11.684;2024-03-06T11:14:24;10.80;;;7.00;;
37873;SDS011;23709;48.078;11.684;2024-03-06T11:28:26;9.10;;;5.78;;
37873;SDS011;23709;48.078;11.684;2024-03-06T11:39:05;12.95;;;7.82;;
37873;SDS011;23709;48.078;11.684;2024-03-06T11:44:18;12.75;;;6.82;;
37873;SDS011;23709;48.078;11.684;2024-03-06T11:46:58;11.20;;;6.82;;
37873;SDS011;23709;48.078;11.684;2024-03-06T11:49:32;12.98;;;7.30;;
37873;SDS011;23709;48.078;11.684;2024-03-06T11:52:06;9.20;;;6.10;;
37873;SDS011;23709;48.078;11.684;2024-03-06T11:54:40;9.85;;;6.20;;
37873;SDS011;23709;48.078;11.684;2024-03-06T11:57:12;8.52;;;6.10;;
37873;SDS011;23709;48.078;11.684;2024-03-06T11:59:47;10.23;;;6.38;;
37873;SDS011;23709;48.078;11.684;2024-03-06T12:02:20;12.65;;;6.75;;
37873;SDS011;23709;48.078;11.684;2024-03-06T12:07:26;10.40;;;7.40;;
37873;SDS011;23709;48.078;11.684;2024-03-06T12:09:59;14.88;;;7.75;;
37873;SDS011;23709;48.078;11.684;2024-03-06T12:12:32;9.93;;;7.23;;
37873;SDS011;23709;48.078;11.684;2024-03-06T12:15:04;11.65;;;6.65;;
37873;SDS011;23709;48.078;11.684;2024-03-06T12:17:42;12.45;;;7.65;;
37873;SDS011;23709;48.078;11.684;2024-03-06T12:20:19;11.45;;;7.15;;
37873;SDS011;23709;48.078;11.684;2024-03-06T12:22:52;11.25;;;6.57;;
37873;SDS011;23709;48.078;11.684;2024-03-06T12:25:25;12.13;;;6.40;;
37873;SDS011;23709;48.078;11.684;2024-03-06T12:28:06;12.15;;;7.80;;
37873;SDS011;23709;48.078;11.684;2024-03-06T12:30:42;15.27;;;7.72;;
37873;SDS011;23709;48.078;11.684;2024-03-06T12:33:17;12.80;;;8.40;;
37873;SDS011;23709;48.078;11.684;2024-03-06T12:36:00;14.93;;;8.40;;
37873;SDS011;23709;48.078;11.684;2024-03-06T12:38:36;13.85;;;8.73;;
37873;SDS011;23709;48.078;11.684;2024-03-06T12:41:09;13.55;;;9.15;;
37873;SDS011;23709;48.078;11.684;2024-03-06T12:43:42;12.73;;;8.40;;
37873;SDS011;23709;48.078;11.684;2024-03-06T12:46:15;15.20;;;10.23;;
37873;SDS011;23709;48.078;11.684;2024-03-06T12:48:48;13.82;;;8.27;;
37873;SDS011;23709;48.078;11.684;2024-03-06T12:51:21;12.90;;;7.53;;
37873;SDS011;23709;48.078;11.684;2024-03-06T12:53:54;11.35;;;7.43;;
37873;SDS011;23709;48.078;11.684;2024-03-06T12:56:26;10.00;;;4.95;;
37873;SDS011;23709;48.078;11.684;2024-03-06T12:58:59;9.33;;;5.53;;
37873;SDS011;23709;48.078;11.684;2024-03-06T13:01:31;10.52;;;6.00;;
37873;SDS011;23709;48.078;11.684;2024-03-06T13:04:04;10.18;;;6.43;;
37873;SDS011;23709;48.078;11.684;2024-03-06T13:06:39;9.13;;;5.22;;
37873;SDS011;23709;48.078;11.684;2024-03-06T13:09:14;7.57;;;5.22;;
37873;SDS011;23709;48.078;11.684;2024-03-06T13:11:47;7.93;;;5.27;;
37873;SDS011;23709;48.078;11.684;2024-03-06T13:14:19;7.75;;;5.13;;
37873;SDS011;23709;48.078;11.684;2024-03-06T13:16:53;9.95;;;5.45;;
37873;SDS011;23709;48.078;11.684;2024-03-06T13:19:25;10.88;;;5.55;;
37873;SDS011;23709;48.078;11.684;2024-03-06T13:21:58;11.20;;;6.20;;
37873;SDS011;23709;48.078;11.684;2024-03-06T13:24:34;9.32;;;5.88;;
37873;SDS011;23709;48.078;11.684;2024-03-06T13:27:10;6.80;;;5.05;;
37873;SDS011;23709;48.078;11.684;2024-03-06T13:29:43;10.90;;;5.97;;
37873;SDS011;23709;48.078;11.684;2024-03-06T13:32:16;11.48;;;6.90;;
37873;SDS011;23709;48.078;11.684;2024-03-06T13:34:48;9.10;;;6.15;;
37873;SDS011;23709;48.078;11.684;2024-03-06T13:37:21;7.53;;;4.83;;
37873;SDS011;23709;48.078;11.684;2024-03-06T13:39:55;9.10;;;5.45;;
37873;SDS011;23709;48.078;11.684;2024-03-06T13:42:32;9.13;;;5.40;;
37873;SDS011;23709;48.078;11.684;2024-03-06T13:45:05;11.95;;;5.90;;
37873;SDS011;23709;48.078;11.684;2024-03-06T13:47:46;12.27;;;7.55;;
37873;SDS011;23709;48.078;11.684;2024-03-06T13:50:21;15.00;;;8.43;;
37873;SDS011;23709;48.078;11.684;2024-03-06T13:52:55;13.25;;;8.68;;
37873;SDS011;23709;48.078;11.684;2024-03-06T13:55:28;15.23;;;8.27;;
37873;SDS011;23709;48.078;11.684;2024-03-06T13:58:03;12.60;;;7.43;;
37873;SDS011;23709;48.078;11.684;2024-03-06T14:03:09;8.77;;;5.57;;
37873;SDS011;23709;48.078;11.684;2024-03-06T14:05:44;11.43;;;5.78;;
37873;SDS011;23709;48.078;11.684;2024-03-06T14:08:16;5.82;;;3.83;;
37873;SDS011;23709;48.078;11.684;2024-03-06T14:10:49;5.88;;;3.97;;
37873;SDS011;23709;48.078;11.684;2024-03-06T14:13:21;10.35;;;5.68;;
37873;SDS011;23709;48.078;11.684;2024-03-06T14:15:55;11.15;;;5.60;;
37873;SDS011;23709;48.078;11.684;2024-03-06T14:18:27;7.32;;;5.10;;
37873;SDS011;23709;48.078;11.684;2024-03-06T14:21:01;10.43;;;6.13;;
37873;SDS011;23709;48.078;11.684;2024-03-06T14:23:33;7.18;;;4.88;;
37873;SDS011;23709;48.078;11.684;2024-03-06T14:26:07;9.93;;;5.53;;
37873;SDS011;23709;48.078;11.684;2024-03-06T14:28:39;11.23;;;6.28;;
37873;SDS011;23709;48.078;11.684;2024-03-06T14:31:12;9.02;;;5.60;;
37873;SDS011;23709;48.078;11.684;2024-03-06T14:33:44;8.57;;;5.13;;
37873;SDS011;23709;48.078;11.684;2024-03-06T14:36:18;5.93;;;4.28;;
37873;SDS011;23709;48.078;11.684;2024-03-06T14:38:54;9.77;;;5.25;;
37873;SDS011;23709;48.078;11.684;2024-03-06T14:41:26;7.45;;;5.30;;
37873;SDS011;23709;48.078;11.684;2024-03-06T14:43:59;6.30;;;4.15;;
37873;SDS011;23709;48.078;11.684;2024-03-06T14:46:31;6.97;;;4.53;;
37873;SDS011;23709;48.078;11.684;2024-03-06T14:49:04;10.37;;;5.60;;
37873;SDS011;23709;48.078;11.684;2024-03-06T14:51:37;7.25;;;4.50;;
37873;SDS011;23709;48.078;11.684;2024-03-06T14:54:09;6.53;;;4.65;;
37873;SDS011;23709;48.078;11.684;2024-03-06T14:56:42;5.43;;;4.10;;
37873;SDS011;23709;48.078;11.684;2024-03-06T14:59:15;9.32;;;4.38;;
37873;SDS011;23709;48.078;11.684;2024-03-06T15:01:48;6.18;;;4.38;;
37873;SDS011;23709;48.078;11.684;2024-03-06T15:04:22;4.72;;;3.53;;
37873;SDS011;23709;48.078;11.684;2024-03-06T15:06:54;5.18;;;3.88;;
37873;SDS011;23709;48.078;11.684;2024-03-06T15:09:27;6.97;;;4.20;;
37873;SDS011;23709;48.078;11.684;2024-03-06T15:12:00;6.88;;;4.75;;
37873;SDS011;23709;48.078;11.684;2024-03-06T15:14:35;7.55;;;5.78;;
37873;SDS011;23709;48.078;11.684;2024-03-06T15:17:17;7.40;;;5.28;;
37873;SDS011;23709;48.078;11.684;2024-03-06T15:19:50;7.38;;;5.05;;
37873;SDS011;23709;48.078;11.684;2024-03-06T15:22:23;7.80;;;5.05;;
37873;SDS011;23709;48.078;11.684;2024-03-06T15:24:55;13.52;;;6.50;;
37873;SDS011;23709;48.078;11.684;2024-03-06T15:27:27;9.90;;;6.05;;
37873;SDS011;23709;48.078;11.684;2024-03-06T15:30:00;10.85;;;6.10;;
37873;SDS011;23709;48.078;11.684;2024-03-06T15:32:34;8.00;;;5.53;;
37873;SDS011;23709;48.078;11.684;2024-03-06T15:35:08;9.05;;;5.57;;
37873;SDS011;23709;48.078;11.684;2024-03-06T15:37:40;9.73;;;6.10;;
37873;SDS011;23709;48.078;11.684;2024-03-06T15:40:15;11.57;;;6.05;;
37873;SDS011;23709;48.078;11.684;2024-03-06T15:42:48;8.23;;;5.95;;
37873;SDS011;23709;48.078;11.684;2024-03-06T15:45:20;7.28;;;5.40;;